sensor_id;sensor_type;location;lat;lon;timestamp;P1;durP1;ratioP1;P2;durP2;ratioP2
1665;SDS011;831;48.308;14.294;2022-07-19T00:02:07;15.20;;;14.50;;
1665;SDS011;831;48.308;14.294;2022-07-19T00:04:35;14.63;;;13.90;;
1665;SDS011;831;48.308;14.294;2022-07-19T00:07:02;14.47;;;13.77;;
1665;SDS011;831;48.308;14.294;2022-07-19T00:09:29;15.30;;;14.50;;
1665;SDS011;831;48.308;14.294;2022-07-19T00:11:55;15.00;;;14.23;;
1665;SDS011;831;48.308;14.294;2022-07-19T00:14:22;15.07;;;14.37;;
1665;SDS011;831;48.308;14.294;2022-07-19T00:16:49;14.90;;;14.20;;
1665;SDS011;831;48.308;14.294;2022-07-19T00:19:16;15.73;;;14.97;;
1665;SDS011;831;48.308;14.294;2022-07-19T00:21:44;15.33;;;14.53;;
1665;SDS011;831;48.308;14.294;2022-07-19T00:24:10;15.17;;;14.37;;
1665;SDS011;831;48.308;14.294;2022-07-19T00:26:37;14.97;;;14.20;;
1665;SDS011;831;48.308;14.294;2022-07-19T00:29:03;15.40;;;14.70;;
1665;SDS011;831;48.308;14.294;2022-07-19T00:31:30;14.90;;;14.10;;
1665;SDS011;831;48.308;14.294;2022-07-19T00:33:56;15.80;;;15.00;;
1665;SDS011;831;48.308;14.294;2022-07-19T00:36:23;14.97;;;14.27;;
1665;SDS011;831;48.308;14.294;2022-07-19T00:38:51;15.37;;;14.67;;
1665;SDS011;831;48.308;14.294;2022-07-19T00:41:17;14.37;;;13.63;;
1665;SDS011;831;48.308;14.294;2022-07-19T00:43:44;15.27;;;14.37;;
1665;SDS011;831;48.308;14.294;2022-07-19T00:46:11;14.73;;;13.97;;
1665;SDS011;831;48.308;14.294;2022-07-19T00:48:38;15.10;;;14.20;;
1665;SDS011;831;48.308;14.294;2022-07-19T00:51:06;15.10;;;14.37;;
1665;SDS011;831;48.308;14.294;2022-07-19T00:53:32;15.37;;;14.40;;
1665;SDS011;831;48.308;14.294;2022-07-19T00:56:02;14.70;;;14.00;;
1665;SDS011;831;48.308;14.294;2022-07-19T00:58:29;14.87;;;13.97;;
1665;SDS011;831;48.308;14.294;2022-07-19T01:00:56;14.80;;;14.00;;
1665;SDS011;831;48.308;14.294;2022-07-19T01:03:23;14.43;;;13.73;;
1665;SDS011;831;48.308;14.294;2022-07-19T01:05:50;14.70;;;14.00;;
1665;SDS011;831;48.308;14.294;2022-07-19T01:08:17;15.10;;;14.30;;
1665;SDS011;831;48.308;14.294;2022-07-19T01:10:43;14.40;;;13.60;;
1665;SDS011;831;48.308;14.294;2022-07-19T01:13:13;14.80;;;14.00;;
1665;SDS011;831;48.308;14.294;2022-07-19T01:15:40;15.60;;;14.70;;
1665;SDS011;831;48.308;14.294;2022-07-19T01:18:07;14.83;;;14.00;;
1665;SDS011;831;48.308;14.294;2022-07-19T01:20:33;15.43;;;14.63;;
1665;SDS011;831;48.308;14.294;2022-07-19T01:23:01;15.40;;;14.60;;
1665;SDS011;831;48.308;14.294;2022-07-19T01:25:29;15.70;;;14.80;;
1665;SDS011;831;48.308;14.294;2022-07-19T01:27:56;15.80;;;15.00;;
1665;SDS011;831;48.308;14.294;2022-07-19T01:30:23;15.90;;;15.00;;
1665;SDS011;831;48.308;14.294;2022-07-19T01:32:50;16.07;;;15.10;;
1665;SDS011;831;48.308;14.294;2022-07-19T01:35:17;15.50;;;14.70;;
1665;SDS011;831;48.308;14.294;2022-07-19T01:37:44;16.00;;;15.10;;
1665;SDS011;831;48.308;14.294;2022-07-19T01:40:13;15.47;;;14.67;;
1665;SDS011;831;48.308;14.294;2022-07-19T01:42:40;15.40;;;14.60;;
1665;SDS011;831;48.308;14.294;2022-07-19T01:45:07;15.33;;;14.43;;
1665;SDS011;831;48.308;14.294;2022-07-19T01:47:34;15.20;;;14.30;;
1665;SDS011;831;48.308;14.294;2022-07-19T01:50:01;14.80;;;14.10;;
1665;SDS011;831;48.308;14.294;2022-07-19T01:52:28;15.03;;;14.33;;
1665;SDS011;831;48.308;14.294;2022-07-19T01:54:54;15.40;;;14.50;;
1665;SDS011;831;48.308;14.294;2022-07-19T01:57:22;16.10;;;15.27;;
1665;SDS011;831;48.308;14.294;2022-07-19T01:59:49;16.07;;;15.27;;
1665;SDS011;831;48.308;14.294;2022-07-19T02:02:16;15.80;;;15.00;;
1665;SDS011;831;48.308;14.294;2022-07-19T02:04:42;15.70;;;14.90;;
1665;SDS011;831;48.308;14.294;2022-07-19T02:07:09;16.27;;;15.47;;
1665;SDS011;831;48.308;14.294;2022-07-19T02:09:35;15.97;;;15.17;;
1665;SDS011;831;48.308;14.294;2022-07-19T02:12:02;16.10;;;15.20;;
1665;SDS011;831;48.308;14.294;2022-07-19T02:14:30;15.67;;;14.83;;
1665;SDS011;831;48.308;14.294;2022-07-19T02:16:56;16.33;;;15.33;;
1665;SDS011;831;48.308;14.294;2022-07-19T02:19:23;15.50;;;14.60;;
1665;SDS011;831;48.308;14.294;2022-07-19T02:21:49;15.70;;;14.97;;
1665;SDS011;831;48.308;14.294;2022-07-19T02:24:16;16.20;;;15.30;;
1665;SDS011;831;48.308;14.294;2022-07-19T02:26:43;16.60;;;15.60;;
1665;SDS011;831;48.308;14.294;2022-07-19T02:29:09;16.40;;;15.60;;
1665;SDS011;831;48.308;14.294;2022-07-19T02:31:37;16.80;;;15.90;;
1665;SDS011;831;48.308;14.294;2022-07-19T02:34:04;17.43;;;16.43;;
1665;SDS011;831;48.308;14.294;2022-07-19T02:36:30;16.80;;;16.00;;
1665;SDS011;831;48.308;14.294;2022-07-19T02:38:57;18.23;;;16.97;;
1665;SDS011;831;48.308;14.294;2022-07-19T02:41:24;17.37;;;16.37;;
1665;SDS011;831;48.308;14.294;2022-07-19T02:43:51;17.70;;;16.80;;
1665;SDS011;831;48.308;14.294;2022-07-19T02:46:17;17.50;;;16.50;;
1665;SDS011;831;48.308;14.294;2022-07-19T02:48:45;17.67;;;16.57;;
1665;SDS011;831;48.308;14.294;2022-07-19T02:51:12;17.97;;;16.90;;
1665;SDS011;831;48.308;14.294;2022-07-19T02:53:38;18.07;;;17.17;;
1665;SDS011;831;48.308;14.294;2022-07-19T02:56:05;17.60;;;16.70;;
1665;SDS011;831;48.308;14.294;2022-07-19T02:58:32;17.33;;;16.23;;
1665;SDS011;831;48.308;14.294;2022-07-19T03:00:58;16.90;;;15.97;;
1665;SDS011;831;48.308;14.294;2022-07-19T03:03:25;17.20;;;16.30;;
1665;SDS011;831;48.308;14.294;2022-07-19T03:06:11;17.10;;;16.20;;
1665;SDS011;831;48.308;14.294;2022-07-19T03:08:38;17.40;;;16.50;;
1665;SDS011;831;48.308;14.294;2022-07-19T03:11:04;17.47;;;16.57;;
1665;SDS011;831;48.308;14.294;2022-07-19T03:13:31;18.20;;;17.30;;
1665;SDS011;831;48.308;14.294;2022-07-19T03:15:58;17.30;;;16.40;;
1665;SDS011;831;48.308;14.294;2022-07-19T03:18:24;17.63;;;16.73;;
1665;SDS011;831;48.308;14.294;2022-07-19T03:20:51;17.50;;;16.60;;
1665;SDS011;831;48.308;14.294;2022-07-19T03:23:19;16.60;;;15.77;;
1665;SDS011;831;48.308;14.294;2022-07-19T03:25:45;15.87;;;14.97;;
1665;SDS011;831;48.308;14.294;2022-07-19T03:28:13;15.17;;;14.40;;
1665;SDS011;831;48.308;14.294;2022-07-19T03:30:39;15.50;;;14.60;;
1665;SDS011;831;48.308;14.294;2022-07-19T03:33:06;15.10;;;14.30;;
1665;SDS011;831;48.308;14.294;2022-07-19T03:35:32;15.43;;;14.63;;
1665;SDS011;831;48.308;14.294;2022-07-19T03:37:59;14.83;;;14.03;;
1665;SDS011;831;48.308;14.294;2022-07-19T03:40:27;15.07;;;14.37;;
1665;SDS011;831;48.308;14.294;2022-07-19T03:42:53;15.93;;;14.97;;
1665;SDS011;831;48.308;14.294;2022-07-19T03:45:20;16.67;;;15.60;;
1665;SDS011;831;48.308;14.294;2022-07-19T03:47:46;17.23;;;16.23;;
1665;SDS011;831;48.308;14.294;2022-07-19T03:50:13;18.23;;;17.10;;
1665;SDS011;831;48.308;14.294;2022-07-19T03:52:39;17.30;;;16.40;;
1665;SDS011;831;48.308;14.294;2022-07-19T03:55:06;17.83;;;16.60;;
1665;SDS011;831;48.308;14.294;2022-07-19T03:57:34;17.77;;;16.77;;
1665;SDS011;831;48.308;14.294;2022-07-19T04:00:01;17.80;;;16.83;;
1665;SDS011;831;48.308;14.294;2022-07-19T04:02:28;17.70;;;16.73;;
1665;SDS011;831;48.308;14.294;2022-07-19T04:04:54;17.00;;;16.10;;
1665;SDS011;831;48.308;14.294;2022-07-19T04:07:21;18.23;;;17.07;;
1665;SDS011;831;48.308;14.294;2022-07-19T04:09:47;17.70;;;16.70;;
1665;SDS011;831;48.308;14.294;2022-07-19T04:12:14;17.60;;;16.50;;
1665;SDS011;831;48.308;14.294;2022-07-19T04:14:42;18.10;;;16.80;;
1665;SDS011;831;48.308;14.294;2022-07-19T04:17:08;18.47;;;17.20;;
1665;SDS011;831;48.308;14.294;2022-07-19T04:19:35;18.30;;;17.20;;
1665;SDS011;831;48.308;14.294;2022-07-19T04:22:01;17.87;;;16.87;;
1665;SDS011;831;48.308;14.294;2022-07-19T04:24:28;18.10;;;17.10;;
1665;SDS011;831;48.308;14.294;2022-07-19T04:26:55;18.40;;;17.30;;
1665;SDS011;831;48.308;14.294;2022-07-19T04:29:23;17.73;;;16.67;;
1665;SDS011;831;48.308;14.294;2022-07-19T04:31:51;17.47;;;16.47;;
1665;SDS011;831;48.308;14.294;2022-07-19T04:34:17;17.90;;;16.60;;
1665;SDS011;831;48.308;14.294;2022-07-19T04:36:44;18.17;;;17.07;;
1665;SDS011;831;48.308;14.294;2022-07-19T04:39:10;17.80;;;16.80;;
1665;SDS011;831;48.308;14.294;2022-07-19T04:41:37;17.50;;;16.50;;
1665;SDS011;831;48.308;14.294;2022-07-19T04:44:04;16.53;;;15.63;;
1665;SDS011;831;48.308;14.294;2022-07-19T04:46:31;15.93;;;15.10;;
1665;SDS011;831;48.308;14.294;2022-07-19T04:48:59;16.07;;;15.27;;
1665;SDS011;831;48.308;14.294;2022-07-19T04:51:26;16.83;;;15.70;;
1665;SDS011;831;48.308;14.294;2022-07-19T04:53:52;15.93;;;15.03;;
1665;SDS011;831;48.308;14.294;2022-07-19T04:56:19;17.03;;;15.90;;
1665;SDS011;831;48.308;14.294;2022-07-19T04:58:45;15.70;;;14.90;;
1665;SDS011;831;48.308;14.294;2022-07-19T05:01:12;15.00;;;14.20;;
1665;SDS011;831;48.308;14.294;2022-07-19T05:03:39;16.13;;;15.20;;
1665;SDS011;831;48.308;14.294;2022-07-19T05:06:07;16.10;;;15.10;;
1665;SDS011;831;48.308;14.294;2022-07-19T05:08:33;15.40;;;14.50;;
1665;SDS011;831;48.308;14.294;2022-07-19T05:11:00;16.30;;;15.40;;
1665;SDS011;831;48.308;14.294;2022-07-19T05:13:26;15.70;;;14.73;;
1665;SDS011;831;48.308;14.294;2022-07-19T05:15:53;16.20;;;15.10;;
1665;SDS011;831;48.308;14.294;2022-07-19T05:18:19;16.30;;;15.30;;
1665;SDS011;831;48.308;14.294;2022-07-19T05:20:46;15.67;;;14.77;;
1665;SDS011;831;48.308;14.294;2022-07-19T05:23:14;16.60;;;15.70;;
1665;SDS011;831;48.308;14.294;2022-07-19T05:25:40;16.80;;;15.80;;
1665;SDS011;831;48.308;14.294;2022-07-19T05:28:07;16.37;;;15.30;;
1665;SDS011;831;48.308;14.294;2022-07-19T05:30:34;16.70;;;15.50;;
1665;SDS011;831;48.308;14.294;2022-07-19T05:33:00;15.40;;;14.50;;
1665;SDS011;831;48.308;14.294;2022-07-19T05:35:27;16.00;;;15.00;;
1665;SDS011;831;48.308;14.294;2022-07-19T05:37:53;16.47;;;15.37;;
1665;SDS011;831;48.308;14.294;2022-07-19T05:40:21;16.10;;;15.10;;
1665;SDS011;831;48.308;14.294;2022-07-19T05:42:48;16.90;;;15.90;;
1665;SDS011;831;48.308;14.294;2022-07-19T05:45:14;16.60;;;15.47;;
1665;SDS011;831;48.308;14.294;2022-07-19T05:47:41;16.63;;;15.63;;
1665;SDS011;831;48.308;14.294;2022-07-19T05:50:08;16.50;;;15.53;;
1665;SDS011;831;48.308;14.294;2022-07-19T05:52:34;16.57;;;15.67;;
1665;SDS011;831;48.308;14.294;2022-07-19T05:55:01;16.33;;;15.23;;
1665;SDS011;831;48.308;14.294;2022-07-19T05:57:32;16.43;;;15.53;;
1665;SDS011;831;48.308;14.294;2022-07-19T05:59:58;16.60;;;15.70;;
1665;SDS011;831;48.308;14.294;2022-07-19T06:02:25;17.33;;;16.23;;
1665;SDS011;831;48.308;14.294;2022-07-19T06:04:51;17.20;;;16.00;;
1665;SDS011;831;48.308;14.294;2022-07-19T06:07:18;17.93;;;16.80;;
1665;SDS011;831;48.308;14.294;2022-07-19T06:09:44;17.50;;;16.40;;
1665;SDS011;831;48.308;14.294;2022-07-19T06:12:11;17.50;;;16.30;;
1665;SDS011;831;48.308;14.294;2022-07-19T06:14:39;17.40;;;16.43;;
1665;SDS011;831;48.308;14.294;2022-07-19T06:17:05;18.17;;;16.93;;
1665;SDS011;831;48.308;14.294;2022-07-19T06:19:32;19.20;;;17.80;;
1665;SDS011;831;48.308;14.294;2022-07-19T06:21:59;21.90;;;20.23;;
1665;SDS011;831;48.308;14.294;2022-07-19T06:24:25;22.40;;;20.80;;
1665;SDS011;831;48.308;14.294;2022-07-19T06:26:52;23.07;;;21.50;;
1665;SDS011;831;48.308;14.294;2022-07-19T06:29:19;25.90;;;23.80;;
1665;SDS011;831;48.308;14.294;2022-07-19T06:31:47;26.70;;;24.40;;
1665;SDS011;831;48.308;14.294;2022-07-19T06:34:14;22.80;;;21.10;;
1665;SDS011;831;48.308;14.294;2022-07-19T06:36:40;24.03;;;22.27;;
1665;SDS011;831;48.308;14.294;2022-07-19T06:39:07;23.63;;;21.37;;
1665;SDS011;831;48.308;14.294;2022-07-19T06:41:33;22.03;;;20.20;;
1665;SDS011;831;48.308;14.294;2022-07-19T06:44:00;22.00;;;20.30;;
1665;SDS011;831;48.308;14.294;2022-07-19T06:46:26;20.70;;;19.30;;
1665;SDS011;831;48.308;14.294;2022-07-19T06:48:54;21.70;;;20.00;;
1665;SDS011;831;48.308;14.294;2022-07-19T06:51:21;21.23;;;19.63;;
1665;SDS011;831;48.308;14.294;2022-07-19T06:53:48;21.47;;;19.47;;
1665;SDS011;831;48.308;14.294;2022-07-19T06:56:14;20.03;;;18.43;;
1665;SDS011;831;48.308;14.294;2022-07-19T06:58:41;19.10;;;17.40;;
1665;SDS011;831;48.308;14.294;2022-07-19T07:01:07;20.23;;;18.63;;
1665;SDS011;831;48.308;14.294;2022-07-19T07:03:35;20.87;;;19.17;;
1665;SDS011;831;48.308;14.294;2022-07-19T07:06:03;20.23;;;18.43;;
1665;SDS011;831;48.308;14.294;2022-07-19T07:08:30;20.23;;;18.73;;
1665;SDS011;831;48.308;14.294;2022-07-19T07:10:56;19.53;;;18.23;;
1665;SDS011;831;48.308;14.294;2022-07-19T07:13:23;19.83;;;18.30;;
1665;SDS011;831;48.308;14.294;2022-07-19T07:15:49;20.00;;;18.27;;
1665;SDS011;831;48.308;14.294;2022-07-19T07:18:16;19.23;;;17.60;;
1665;SDS011;831;48.308;14.294;2022-07-19T07:20:42;21.13;;;19.60;;
1665;SDS011;831;48.308;14.294;2022-07-19T07:23:11;22.20;;;20.33;;
1665;SDS011;831;48.308;14.294;2022-07-19T07:25:37;21.90;;;20.30;;
1665;SDS011;831;48.308;14.294;2022-07-19T07:28:04;20.73;;;19.17;;
1665;SDS011;831;48.308;14.294;2022-07-19T07:30:31;18.97;;;17.57;;
1665;SDS011;831;48.308;14.294;2022-07-19T07:32:57;19.73;;;18.20;;
1665;SDS011;831;48.308;14.294;2022-07-19T07:35:24;19.97;;;18.57;;
1665;SDS011;831;48.308;14.294;2022-07-19T07:37:50;18.80;;;17.50;;
1665;SDS011;831;48.308;14.294;2022-07-19T07:40:18;18.03;;;16.83;;
1665;SDS011;831;48.308;14.294;2022-07-19T07:42:45;20.33;;;18.57;;
1665;SDS011;831;48.308;14.294;2022-07-19T07:45:12;18.80;;;17.47;;
1665;SDS011;831;48.308;14.294;2022-07-19T07:47:39;17.63;;;16.53;;
1665;SDS011;831;48.308;14.294;2022-07-19T07:50:06;17.10;;;16.10;;
1665;SDS011;831;48.308;14.294;2022-07-19T07:52:33;17.70;;;16.37;;
1665;SDS011;831;48.308;14.294;2022-07-19T07:54:59;16.07;;;15.00;;
1665;SDS011;831;48.308;14.294;2022-07-19T07:57:27;16.27;;;15.37;;
1665;SDS011;831;48.308;14.294;2022-07-19T07:59:54;16.30;;;15.33;;
1665;SDS011;831;48.308;14.294;2022-07-19T08:02:20;14.10;;;13.40;;
1665;SDS011;831;48.308;14.294;2022-07-19T08:04:47;15.20;;;14.30;;
1665;SDS011;831;48.308;14.294;2022-07-19T08:07:17;14.67;;;13.90;;
1665;SDS011;831;48.308;14.294;2022-07-19T08:09:43;14.87;;;13.80;;
1665;SDS011;831;48.308;14.294;2022-07-19T08:12:10;15.37;;;14.40;;
1665;SDS011;831;48.308;14.294;2022-07-19T08:17:41;14.87;;;13.80;;
1665;SDS011;831;48.308;14.294;2022-07-19T08:20:08;13.90;;;13.10;;
1665;SDS011;831;48.308;14.294;2022-07-19T08:22:34;14.70;;;13.80;;
1665;SDS011;831;48.308;14.294;2022-07-19T08:25:01;14.93;;;13.77;;
1665;SDS011;831;48.308;14.294;2022-07-19T08:27:27;14.63;;;13.93;;
1665;SDS011;831;48.308;14.294;2022-07-19T08:29:54;14.87;;;14.00;;
1665;SDS011;831;48.308;14.294;2022-07-19T08:32:20;14.80;;;13.90;;
1665;SDS011;831;48.308;14.294;2022-07-19T08:34:48;14.80;;;14.10;;
1665;SDS011;831;48.308;14.294;2022-07-19T08:37:15;15.37;;;14.37;;
1665;SDS011;831;48.308;14.294;2022-07-19T08:39:41;15.30;;;14.43;;
1665;SDS011;831;48.308;14.294;2022-07-19T08:42:08;15.53;;;14.63;;
1665;SDS011;831;48.308;14.294;2022-07-19T08:44:35;15.50;;;14.37;;
1665;SDS011;831;48.308;14.294;2022-07-19T08:47:04;15.33;;;14.53;;
1665;SDS011;831;48.308;14.294;2022-07-19T08:49:30;14.83;;;13.83;;
1665;SDS011;831;48.308;14.294;2022-07-19T08:51:58;15.20;;;14.30;;
1665;SDS011;831;48.308;14.294;2022-07-19T08:54:26;14.47;;;13.67;;
1665;SDS011;831;48.308;14.294;2022-07-19T08:56:53;14.93;;;14.13;;
1665;SDS011;831;48.308;14.294;2022-07-19T08:59:36;14.57;;;13.67;;
1665;SDS011;831;48.308;14.294;2022-07-19T09:02:03;13.90;;;13.20;;
1665;SDS011;831;48.308;14.294;2022-07-19T09:04:30;13.80;;;13.10;;
1665;SDS011;831;48.308;14.294;2022-07-19T09:06:57;14.00;;;13.30;;
1665;SDS011;831;48.308;14.294;2022-07-19T09:09:27;14.10;;;13.30;;
1665;SDS011;831;48.308;14.294;2022-07-19T09:11:54;13.73;;;13.03;;
1665;SDS011;831;48.308;14.294;2022-07-19T09:14:21;13.80;;;13.10;;
1665;SDS011;831;48.308;14.294;2022-07-19T09:16:52;14.00;;;13.30;;
1665;SDS011;831;48.308;14.294;2022-07-19T09:19:19;13.57;;;12.87;;
1665;SDS011;831;48.308;14.294;2022-07-19T09:21:52;14.70;;;13.53;;
1665;SDS011;831;48.308;14.294;2022-07-19T09:24:19;14.05;;;13.18;;
1665;SDS011;831;48.308;14.294;2022-07-19T09:26:55;13.87;;;13.03;;
1665;SDS011;831;48.308;14.294;2022-07-19T09:29:21;13.93;;;13.13;;
1665;SDS011;831;48.308;14.294;2022-07-19T09:32:01;13.60;;;12.90;;
1665;SDS011;831;48.308;14.294;2022-07-19T09:34:28;13.73;;;13.03;;
1665;SDS011;831;48.308;14.294;2022-07-19T09:39:36;13.70;;;13.00;;
1665;SDS011;831;48.308;14.294;2022-07-19T09:42:06;13.30;;;12.60;;
1665;SDS011;831;48.308;14.294;2022-07-19T09:44:32;13.70;;;13.10;;
1665;SDS011;831;48.308;14.294;2022-07-19T09:46:59;13.17;;;12.57;;
1665;SDS011;831;48.308;14.294;2022-07-19T09:49:25;13.20;;;12.50;;
1665;SDS011;831;48.308;14.294;2022-07-19T09:51:52;13.80;;;13.10;;
1665;SDS011;831;48.308;14.294;2022-07-19T09:54:20;13.80;;;13.00;;
1665;SDS011;831;48.308;14.294;2022-07-19T09:56:47;13.60;;;12.80;;
1665;SDS011;831;48.308;14.294;2022-07-19T09:59:16;13.60;;;12.80;;
1665;SDS011;831;48.308;14.294;2022-07-19T10:01:43;13.57;;;12.87;;
1665;SDS011;831;48.308;14.294;2022-07-19T10:04:10;13.50;;;12.80;;
1665;SDS011;831;48.308;14.294;2022-07-19T10:06:37;13.40;;;12.70;;
1665;SDS011;831;48.308;14.294;2022-07-19T10:09:05;13.80;;;13.00;;
1665;SDS011;831;48.308;14.294;2022-07-19T10:11:32;13.07;;;12.47;;
1665;SDS011;831;48.308;14.294;2022-07-19T10:13:59;12.60;;;12.00;;
1665;SDS011;831;48.308;14.294;2022-07-19T10:16:29;13.40;;;12.80;;
1665;SDS011;831;48.308;14.294;2022-07-19T10:19:03;13.20;;;12.60;;
1665;SDS011;831;48.308;14.294;2022-07-19T10:21:31;13.37;;;12.70;;
1665;SDS011;831;48.308;14.294;2022-07-19T10:23:58;13.80;;;13.00;;
1665;SDS011;831;48.308;14.294;2022-07-19T10:26:34;13.50;;;12.80;;
1665;SDS011;831;48.308;14.294;2022-07-19T10:29:07;13.77;;;12.87;;
1665;SDS011;831;48.308;14.294;2022-07-19T10:31:36;14.00;;;13.30;;
1665;SDS011;831;48.308;14.294;2022-07-19T10:34:04;13.37;;;12.67;;
1665;SDS011;831;48.308;14.294;2022-07-19T10:36:31;12.60;;;12.00;;
1665;SDS011;831;48.308;14.294;2022-07-19T10:44:27;12.97;;;12.37;;
1665;SDS011;831;48.308;14.294;2022-07-19T10:46:55;13.47;;;12.60;;
1665;SDS011;831;48.308;14.294;2022-07-19T10:49:41;13.00;;;12.20;;
1665;SDS011;831;48.308;14.294;2022-07-19T10:57:36;13.03;;;12.43;;
1665;SDS011;831;48.308;14.294;2022-07-19T11:00:06;12.40;;;11.80;;
1665;SDS011;831;48.308;14.294;2022-07-19T11:02:42;13.00;;;12.40;;
1665;SDS011;831;48.308;14.294;2022-07-19T11:05:19;13.67;;;12.83;;
1665;SDS011;831;48.308;14.294;2022-07-19T11:07:47;13.37;;;12.53;;
1665;SDS011;831;48.308;14.294;2022-07-19T11:10:13;13.70;;;13.07;;
1665;SDS011;831;48.308;14.294;2022-07-19T11:12:46;13.57;;;12.43;;
1665;SDS011;831;48.308;14.294;2022-07-19T11:15:13;13.40;;;12.60;;
1665;SDS011;831;48.308;14.294;2022-07-19T11:17:40;13.37;;;12.53;;
1665;SDS011;831;48.308;14.294;2022-07-19T11:20:18;12.30;;;11.70;;
1665;SDS011;831;48.308;14.294;2022-07-19T11:22:45;13.63;;;12.83;;
1665;SDS011;831;48.308;14.294;2022-07-19T11:25:12;13.07;;;12.37;;
1665;SDS011;831;48.308;14.294;2022-07-19T11:27:40;13.07;;;12.47;;
1665;SDS011;831;48.308;14.294;2022-07-19T11:30:07;12.67;;;12.00;;
1665;SDS011;831;48.308;14.294;2022-07-19T11:32:33;13.70;;;13.00;;
1665;SDS011;831;48.308;14.294;2022-07-19T11:35:01;13.00;;;12.40;;
1665;SDS011;831;48.308;14.294;2022-07-19T11:37:30;13.10;;;12.20;;
1665;SDS011;831;48.308;14.294;2022-07-19T11:39:56;12.93;;;12.23;;
1665;SDS011;831;48.308;14.294;2022-07-19T11:42:27;13.13;;;12.53;;
1665;SDS011;831;48.308;14.294;2022-07-19T11:44:54;13.40;;;12.80;;
1665;SDS011;831;48.308;14.294;2022-07-19T11:47:21;13.37;;;12.67;;
1665;SDS011;831;48.308;14.294;2022-07-19T11:49:47;13.23;;;12.43;;
1665;SDS011;831;48.308;14.294;2022-07-19T11:52:14;12.60;;;11.93;;
1665;SDS011;831;48.308;14.294;2022-07-19T11:54:42;13.93;;;13.03;;
1665;SDS011;831;48.308;14.294;2022-07-19T11:57:21;13.47;;;12.77;;
1665;SDS011;831;48.308;14.294;2022-07-19T11:59:48;13.37;;;12.60;;
1665;SDS011;831;48.308;14.294;2022-07-19T12:02:15;12.70;;;12.10;;
1665;SDS011;831;48.308;14.294;2022-07-19T12:04:41;12.80;;;12.20;;
1665;SDS011;831;48.308;14.294;2022-07-19T12:07:08;13.00;;;12.37;;
1665;SDS011;831;48.308;14.294;2022-07-19T12:09:34;12.90;;;12.30;;
1665;SDS011;831;48.308;14.294;2022-07-19T12:12:12;13.10;;;12.30;;
1665;SDS011;831;48.308;14.294;2022-07-19T12:14:39;12.97;;;12.27;;
1665;SDS011;831;48.308;14.294;2022-07-19T12:17:10;12.57;;;12.07;;
1665;SDS011;831;48.308;14.294;2022-07-19T12:19:37;13.33;;;12.73;;
1665;SDS011;831;48.308;14.294;2022-07-19T12:22:03;13.90;;;13.10;;
1665;SDS011;831;48.308;14.294;2022-07-19T12:24:31;13.40;;;12.60;;
1665;SDS011;831;48.308;14.294;2022-07-19T12:26:59;12.90;;;12.30;;
1665;SDS011;831;48.308;14.294;2022-07-19T12:29:28;13.60;;;12.77;;
1665;SDS011;831;48.308;14.294;2022-07-19T12:31:57;13.30;;;12.70;;
1665;SDS011;831;48.308;14.294;2022-07-19T12:34:24;13.80;;;13.10;;
1665;SDS011;831;48.308;14.294;2022-07-19T12:36:50;13.63;;;12.93;;
1665;SDS011;831;48.308;14.294;2022-07-19T12:39:21;13.63;;;12.87;;
1665;SDS011;831;48.308;14.294;2022-07-19T12:41:58;13.57;;;12.90;;
1665;SDS011;831;48.308;14.294;2022-07-19T12:44:25;13.60;;;12.90;;
1665;SDS011;831;48.308;14.294;2022-07-19T12:46:53;13.63;;;13.00;;
1665;SDS011;831;48.308;14.294;2022-07-19T12:49:20;13.67;;;12.90;;
1665;SDS011;831;48.308;14.294;2022-07-19T12:51:46;14.07;;;13.27;;
1665;SDS011;831;48.308;14.294;2022-07-19T12:54:13;13.20;;;12.60;;
1665;SDS011;831;48.308;14.294;2022-07-19T12:56:39;14.57;;;13.37;;
1665;SDS011;831;48.308;14.294;2022-07-19T12:59:06;13.43;;;12.73;;
1665;SDS011;831;48.308;14.294;2022-07-19T13:01:50;13.90;;;13.20;;
1665;SDS011;831;48.308;14.294;2022-07-19T13:04:18;13.87;;;13.17;;
1665;SDS011;831;48.308;14.294;2022-07-19T13:06:46;13.70;;;12.90;;
1665;SDS011;831;48.308;14.294;2022-07-19T13:09:13;13.30;;;12.60;;
1665;SDS011;831;48.308;14.294;2022-07-19T13:11:39;13.63;;;12.93;;
1665;SDS011;831;48.308;14.294;2022-07-19T13:14:06;13.23;;;12.53;;
1665;SDS011;831;48.308;14.294;2022-07-19T13:16:32;13.23;;;12.53;;
1665;SDS011;831;48.308;14.294;2022-07-19T13:18:59;14.00;;;12.90;;
1665;SDS011;831;48.308;14.294;2022-07-19T13:21:27;13.67;;;13.07;;
1665;SDS011;831;48.308;14.294;2022-07-19T13:23:54;13.57;;;12.73;;
1665;SDS011;831;48.308;14.294;2022-07-19T13:26:21;13.20;;;12.50;;
1665;SDS011;831;48.308;14.294;2022-07-19T13:28:47;13.70;;;12.90;;
1665;SDS011;831;48.308;14.294;2022-07-19T13:31:14;13.10;;;12.40;;
1665;SDS011;831;48.308;14.294;2022-07-19T13:33:40;14.00;;;13.30;;
1665;SDS011;831;48.308;14.294;2022-07-19T13:36:07;14.13;;;13.27;;
1665;SDS011;831;48.308;14.294;2022-07-19T13:38:35;13.37;;;12.70;;
1665;SDS011;831;48.308;14.294;2022-07-19T13:41:03;13.23;;;12.63;;
1665;SDS011;831;48.308;14.294;2022-07-19T13:43:30;14.00;;;13.07;;
1665;SDS011;831;48.308;14.294;2022-07-19T13:45:56;13.63;;;12.93;;
1665;SDS011;831;48.308;14.294;2022-07-19T13:48:24;12.97;;;12.17;;
1665;SDS011;831;48.308;14.294;2022-07-19T13:50:51;13.23;;;12.50;;
1665;SDS011;831;48.308;14.294;2022-07-19T13:53:17;13.27;;;12.30;;
1665;SDS011;831;48.308;14.294;2022-07-19T13:55:45;13.30;;;12.60;;
1665;SDS011;831;48.308;14.294;2022-07-19T13:58:12;13.33;;;12.50;;
1665;SDS011;831;48.308;14.294;2022-07-19T14:00:39;13.23;;;12.53;;
1665;SDS011;831;48.308;14.294;2022-07-19T14:03:05;13.37;;;12.63;;
1665;SDS011;831;48.308;14.294;2022-07-19T14:05:32;13.63;;;12.90;;
1665;SDS011;831;48.308;14.294;2022-07-19T14:07:59;14.20;;;13.20;;
1665;SDS011;831;48.308;14.294;2022-07-19T14:10:26;13.67;;;12.97;;
1665;SDS011;831;48.308;14.294;2022-07-19T14:12:54;14.00;;;13.30;;
1665;SDS011;831;48.308;14.294;2022-07-19T14:15:20;13.70;;;13.00;;
1665;SDS011;831;48.308;14.294;2022-07-19T14:17:47;13.67;;;12.97;;
1665;SDS011;831;48.308;14.294;2022-07-19T14:20:13;14.10;;;13.20;;
1665;SDS011;831;48.308;14.294;2022-07-19T14:22:40;13.33;;;12.73;;
1665;SDS011;831;48.308;14.294;2022-07-19T14:25:07;14.00;;;13.30;;
1665;SDS011;831;48.308;14.294;2022-07-19T14:27:33;13.67;;;13.03;;
1665;SDS011;831;48.308;14.294;2022-07-19T14:30:02;14.17;;;13.40;;
1665;SDS011;831;48.308;14.294;2022-07-19T14:32:28;13.80;;;13.00;;
1665;SDS011;831;48.308;14.294;2022-07-19T14:34:55;13.80;;;13.20;;
1665;SDS011;831;48.308;14.294;2022-07-19T14:37:21;14.67;;;13.97;;
1665;SDS011;831;48.308;14.294;2022-07-19T14:39:48;13.50;;;12.80;;
1665;SDS011;831;48.308;14.294;2022-07-19T14:42:14;13.60;;;13.00;;
1665;SDS011;831;48.308;14.294;2022-07-19T14:44:41;14.30;;;13.10;;
1665;SDS011;831;48.308;14.294;2022-07-19T14:47:09;13.63;;;12.90;;
1665;SDS011;831;48.308;14.294;2022-07-19T14:49:36;13.57;;;12.87;;
1665;SDS011;831;48.308;14.294;2022-07-19T14:52:04;13.43;;;12.53;;
1665;SDS011;831;48.308;14.294;2022-07-19T14:54:30;14.13;;;13.43;;
1665;SDS011;831;48.308;14.294;2022-07-19T14:56:57;13.37;;;12.77;;
1665;SDS011;831;48.308;14.294;2022-07-19T14:59:24;13.47;;;12.77;;
1665;SDS011;831;48.308;14.294;2022-07-19T15:01:51;12.67;;;12.17;;
1665;SDS011;831;48.308;14.294;2022-07-19T15:04:19;12.83;;;12.23;;
1665;SDS011;831;48.308;14.294;2022-07-19T15:06:45;12.83;;;12.33;;